sensor_id;sensor_type;location;lat;lon;timestamp;P1;P2;P0
46681;PMS5003;34101;53.430;-2.224;2023-04-26T00:02:02;12;12;
46681;PMS5003;34101;53.430;-2.224;2023-04-26T00:04:30;11;11;
46681;PMS5003;34101;53.430;-2.224;2023-04-26T00:06:57;14;14;
46681;PMS5003;34101;53.430;-2.224;2023-04-26T00:09:24;14;14;
46681;PMS5003;34101;53.430;-2.224;2023-04-26T00:11:52;14;14;
46681;PMS5003;34101;53.430;-2.224;2023-04-26T00:14:19;14;14;
46681;PMS5003;34101;53.430;-2.224;2023-04-26T00:16:47;13;13;
46681;PMS5003;34101;53.430;-2.224;2023-04-26T00:19:14;13;13;
46681;PMS5003;34101;53.430;-2.224;2023-04-26T00:21:41;15;15;
46681;PMS5003;34101;53.430;-2.224;2023-04-26T00:24:09;13;13;
46681;PMS5003;34101;53.430;-2.224;2023-04-26T00:26:36;12;11;
46681;PMS5003;34101;53.430;-2.224;2023-04-26T00:29:04;13;13;
46681;PMS5003;34101;53.430;-2.224;2023-04-26T00:31:31;13;13;
46681;PMS5003;34101;53.430;-2.224;2023-04-26T00:33:59;15;14;
46681;PMS5003;34101;53.430;-2.224;2023-04-26T00:36:26;13;12;
46681;PMS5003;34101;53.430;-2.224;2023-04-26T00:38:54;13;11;
46681;PMS5003;34101;53.430;-2.224;2023-04-26T00:41:21;12;10;
46681;PMS5003;34101;53.430;-2.224;2023-04-26T00:43:49;11;11;
46681;PMS5003;34101;53.430;-2.224;2023-04-26T00:46:16;12;10;
46681;PMS5003;34101;53.430;-2.224;2023-04-26T00:48:43;10;10;
46681;PMS5003;34101;53.430;-2.224;2023-04-26T00:51:11;14;13;
46681;PMS5003;34101;53.430;-2.224;2023-04-26T00:53:39;12;10;
46681;PMS5003;34101;53.430;-2.224;2023-04-26T00:56:07;11;11;
46681;PMS5003;34101;53.430;-2.224;2023-04-26T00:58:35;11;11;
46681;PMS5003;34101;53.430;-2.224;2023-04-26T01:01:03;11;11;
46681;PMS5003;34101;53.430;-2.224;2023-04-26T01:03:31;11;11;
46681;PMS5003;34101;53.430;-2.224;2023-04-26T01:05:58;13;11;
46681;PMS5003;34101;53.430;-2.224;2023-04-26T01:08:26;11;10;
46681;PMS5003;34101;53.430;-2.224;2023-04-26T01:10:54;12;11;
46681;PMS5003;34101;53.430;-2.224;2023-04-26T01:13:21;10;10;
46681;PMS5003;34101;53.430;-2.224;2023-04-26T01:15:50;12;12;
46681;PMS5003;34101;53.430;-2.224;2023-04-26T01:18:19;10;10;
46681;PMS5003;34101;53.430;-2.224;2023-04-26T01:20:51;10;9;
46681;PMS5003;34101;53.430;-2.224;2023-04-26T01:23:18;11;11;
46681;PMS5003;34101;53.430;-2.224;2023-04-26T01:25:45;10;10;
46681;PMS5003;34101;53.430;-2.224;2023-04-26T01:28:14;9;9;
46681;PMS5003;34101;53.430;-2.224;2023-04-26T01:30:41;13;13;
46681;PMS5003;34101;53.430;-2.224;2023-04-26T01:33:09;10;10;
46681;PMS5003;34101;53.430;-2.224;2023-04-26T01:35:36;10;10;
46681;PMS5003;34101;53.430;-2.224;2023-04-26T01:38:04;11;10;
46681;PMS5003;34101;53.430;-2.224;2023-04-26T01:40:31;10;10;
46681;PMS5003;34101;53.430;-2.224;2023-04-26T01:42:58;11;11;
46681;PMS5003;34101;53.430;-2.224;2023-04-26T01:45:26;13;12;
46681;PMS5003;34101;53.430;-2.224;2023-04-26T01:47:54;16;13;
46681;PMS5003;34101;53.430;-2.224;2023-04-26T01:50:21;11;10;
46681;PMS5003;34101;53.430;-2.224;2023-04-26T01:52:49;13;11;
46681;PMS5003;34101;53.430;-2.224;2023-04-26T01:55:16;10;10;
46681;PMS5003;34101;53.430;-2.224;2023-04-26T01:57:44;11;9;
46681;PMS5003;34101;53.430;-2.224;2023-04-26T02:00:11;11;10;
46681;PMS5003;34101;53.430;-2.224;2023-04-26T02:02:39;7;7;
46681;PMS5003;34101;53.430;-2.224;2023-04-26T02:05:08;9;9;
46681;PMS5003;34101;53.430;-2.224;2023-04-26T02:07:36;13;12;
46681;PMS5003;34101;53.430;-2.224;2023-04-26T02:10:04;9;9;
46681;PMS5003;34101;53.430;-2.224;2023-04-26T02:12:32;9;9;
46681;PMS5003;34101;53.430;-2.224;2023-04-26T02:15:05;10;10;
46681;PMS5003;34101;53.430;-2.224;2023-04-26T02:17:33;12;12;
46681;PMS5003;34101;53.430;-2.224;2023-04-26T02:20:01;10;10;
46681;PMS5003;34101;53.430;-2.224;2023-04-26T02:22:28;8;7;
46681;PMS5003;34101;53.430;-2.224;2023-04-26T02:25:01;11;9;
46681;PMS5003;34101;53.430;-2.224;2023-04-26T02:27:29;11;10;
46681;PMS5003;34101;53.430;-2.224;2023-04-26T02:29:56;10;10;
46681;PMS5003;34101;53.430;-2.224;2023-04-26T02:32:23;10;10;
46681;PMS5003;34101;53.430;-2.224;2023-04-26T02:34:51;12;11;
46681;PMS5003;34101;53.430;-2.224;2023-04-26T02:37:19;11;9;
46681;PMS5003;34101;53.430;-2.224;2023-04-26T02:39:48;11;11;
46681;PMS5003;34101;53.430;-2.224;2023-04-26T02:42:16;19;10;
46681;PMS5003;34101;53.430;-2.224;2023-04-26T02:44:43;9;9;
46681;PMS5003;34101;53.430;-2.224;2023-04-26T02:47:11;10;10;
46681;PMS5003;34101;53.430;-2.224;2023-04-26T02:49:38;10;10;
46681;PMS5003;34101;53.430;-2.224;2023-04-26T02:52:06;11;11;
46681;PMS5003;34101;53.430;-2.224;2023-04-26T02:54:33;11;11;
46681;PMS5003;34101;53.430;-2.224;2023-04-26T02:57:01;12;11;
46681;PMS5003;34101;53.430;-2.224;2023-04-26T02:59:28;10;10;
46681;PMS5003;34101;53.430;-2.224;2023-04-26T03:01:56;15;11;
46681;PMS5003;34101;53.430;-2.224;2023-04-26T03:04:23;12;12;
46681;PMS5003;34101;53.430;-2.224;2023-04-26T03:06:51;10;10;
46681;PMS5003;34101;53.430;-2.224;2023-04-26T03:09:18;13;12;
46681;PMS5003;34101;53.430;-2.224;2023-04-26T03:11:45;12;11;
46681;PMS5003;34101;53.430;-2.224;2023-04-26T03:14:13;12;12;
46681;PMS5003;34101;53.430;-2.224;2023-04-26T03:16:41;10;10;
46681;PMS5003;34101;53.430;-2.224;2023-04-26T03:19:08;17;15;
46681;PMS5003;34101;53.430;-2.224;2023-04-26T03:21:40;8;8;
46681;PMS5003;34101;53.430;-2.224;2023-04-26T03:24:07;13;11;
46681;PMS5003;34101;53.430;-2.224;2023-04-26T03:26:35;15;11;
46681;PMS5003;34101;53.430;-2.224;2023-04-26T03:29:03;12;12;
46681;PMS5003;34101;53.430;-2.224;2023-04-26T03:31:31;10;10;
46681;PMS5003;34101;53.430;-2.224;2023-04-26T03:33:58;12;12;
46681;PMS5003;34101;53.430;-2.224;2023-04-26T03:36:26;15;11;
46681;PMS5003;34101;53.430;-2.224;2023-04-26T03:38:53;12;12;
46681;PMS5003;34101;53.430;-2.224;2023-04-26T03:41:21;13;11;
46681;PMS5003;34101;53.430;-2.224;2023-04-26T03:43:48;11;11;
46681;PMS5003;34101;53.430;-2.224;2023-04-26T03:46:16;10;10;
46681;PMS5003;34101;53.430;-2.224;2023-04-26T03:48:43;10;10;
46681;PMS5003;34101;53.430;-2.224;2023-04-26T03:51:11;15;12;
46681;PMS5003;34101;53.430;-2.224;2023-04-26T03:53:39;11;11;
46681;PMS5003;34101;53.430;-2.224;2023-04-26T03:56:06;10;10;
46681;PMS5003;34101;53.430;-2.224;2023-04-26T03:58:34;12;10;
46681;PMS5003;34101;53.430;-2.224;2023-04-26T04:01:01;12;9;
46681;PMS5003;34101;53.430;-2.224;2023-04-26T04:03:29;16;13;
46681;PMS5003;34101;53.430;-2.224;2023-04-26T04:05:56;12;12;
46681;PMS5003;34101;53.430;-2.224;2023-04-26T04:08:25;13;13;
46681;PMS5003;34101;53.430;-2.224;2023-04-26T04:10:53;11;10;
46681;PMS5003;34101;53.430;-2.224;2023-04-26T04:13:20;12;11;
46681;PMS5003;34101;53.430;-2.224;2023-04-26T04:15:48;12;10;
46681;PMS5003;34101;53.430;-2.224;2023-04-26T04:18:15;15;12;
46681;PMS5003;34101;53.430;-2.224;2023-04-26T04:20:43;18;11;
46681;PMS5003;34101;53.430;-2.224;2023-04-26T04:23:11;16;12;
46681;PMS5003;34101;53.430;-2.224;2023-04-26T04:25:38;16;12;
46681;PMS5003;34101;53.430;-2.224;2023-04-26T04:28:05;12;11;
46681;PMS5003;34101;53.430;-2.224;2023-04-26T04:30:33;12;11;
46681;PMS5003;34101;53.430;-2.224;2023-04-26T04:33:00;16;12;
46681;PMS5003;34101;53.430;-2.224;2023-04-26T04:35:29;18;18;
46681;PMS5003;34101;53.430;-2.224;2023-04-26T04:37:56;17;15;
46681;PMS5003;34101;53.430;-2.224;2023-04-26T04:40:24;13;12;
46681;PMS5003;34101;53.430;-2.224;2023-04-26T04:42:51;13;13;
46681;PMS5003;34101;53.430;-2.224;2023-04-26T04:45:19;17;13;
46681;PMS5003;34101;53.430;-2.224;2023-04-26T04:47:46;11;10;
46681;PMS5003;34101;53.430;-2.224;2023-04-26T04:50:13;19;16;
46681;PMS5003;34101;53.430;-2.224;2023-04-26T04:52:41;16;15;
46681;PMS5003;34101;53.430;-2.224;2023-04-26T04:55:08;18;15;
46681;PMS5003;34101;53.430;-2.224;2023-04-26T04:57:35;16;14;
46681;PMS5003;34101;53.430;-2.224;2023-04-26T05:00:03;14;14;
46681;PMS5003;34101;53.430;-2.224;2023-04-26T05:02:31;19;18;
46681;PMS5003;34101;53.430;-2.224;2023-04-26T05:04:58;18;17;
46681;PMS5003;34101;53.430;-2.224;2023-04-26T05:07:25;16;16;
46681;PMS5003;34101;53.430;-2.224;2023-04-26T05:09:53;18;17;
46681;PMS5003;34101;53.430;-2.224;2023-04-26T05:12:20;12;12;
46681;PMS5003;34101;53.430;-2.224;2023-04-26T05:14:47;12;12;
46681;PMS5003;34101;53.430;-2.224;2023-04-26T05:17:15;17;16;
46681;PMS5003;34101;53.430;-2.224;2023-04-26T05:19:43;16;15;
46681;PMS5003;34101;53.430;-2.224;2023-04-26T05:22:09;15;15;
46681;PMS5003;34101;53.430;-2.224;2023-04-26T05:24:37;12;12;
46681;PMS5003;34101;53.430;-2.224;2023-04-26T05:27:04;13;13;
46681;PMS5003;34101;53.430;-2.224;2023-04-26T05:29:31;13;12;
46681;PMS5003;34101;53.430;-2.224;2023-04-26T05:31:59;13;13;
46681;PMS5003;34101;53.430;-2.224;2023-04-26T05:34:31;11;11;
46681;PMS5003;34101;53.430;-2.224;2023-04-26T05:36:58;13;12;
46681;PMS5003;34101;53.430;-2.224;2023-04-26T05:39:26;19;16;
46681;PMS5003;34101;53.430;-2.224;2023-04-26T05:41:53;16;13;
46681;PMS5003;34101;53.430;-2.224;2023-04-26T05:44:20;13;13;
46681;PMS5003;34101;53.430;-2.224;2023-04-26T05:46:48;17;16;
46681;PMS5003;34101;53.430;-2.224;2023-04-26T05:49:15;17;16;
46681;PMS5003;34101;53.430;-2.224;2023-04-26T05:51:43;20;17;
46681;PMS5003;34101;53.430;-2.224;2023-04-26T05:54:10;12;12;
46681;PMS5003;34101;53.430;-2.224;2023-04-26T05:56:38;12;12;
46681;PMS5003;34101;53.430;-2.224;2023-04-26T05:59:06;17;15;
46681;PMS5003;34101;53.430;-2.224;2023-04-26T06:01:34;13;13;
46681;PMS5003;34101;53.430;-2.224;2023-04-26T06:04:01;15;13;
46681;PMS5003;34101;53.430;-2.224;2023-04-26T06:06:28;17;17;
46681;PMS5003;34101;53.430;-2.224;2023-04-26T06:08:55;11;11;
46681;PMS5003;34101;53.430;-2.224;2023-04-26T06:11:23;12;12;
46681;PMS5003;34101;53.430;-2.224;2023-04-26T06:13:50;12;12;
46681;PMS5003;34101;53.430;-2.224;2023-04-26T06:16:17;13;12;
46681;PMS5003;34101;53.430;-2.224;2023-04-26T06:18:44;15;14;
46681;PMS5003;34101;53.430;-2.224;2023-04-26T06:21:12;16;14;
46681;PMS5003;34101;53.430;-2.224;2023-04-26T06:23:39;19;16;
46681;PMS5003;34101;53.430;-2.224;2023-04-26T06:26:07;15;13;
46681;PMS5003;34101;53.430;-2.224;2023-04-26T06:28:34;14;14;
46681;PMS5003;34101;53.430;-2.224;2023-04-26T06:31:01;12;12;
46681;PMS5003;34101;53.430;-2.224;2023-04-26T06:33:29;22;17;
46681;PMS5003;34101;53.430;-2.224;2023-04-26T06:35:56;17;16;
46681;PMS5003;34101;53.430;-2.224;2023-04-26T06:38:23;15;14;
46681;PMS5003;34101;53.430;-2.224;2023-04-26T06:40:50;19;15;
46681;PMS5003;34101;53.430;-2.224;2023-04-26T06:43:18;17;16;
46681;PMS5003;34101;53.430;-2.224;2023-04-26T06:45:45;20;17;
46681;PMS5003;34101;53.430;-2.224;2023-04-26T06:48:12;15;15;
46681;PMS5003;34101;53.430;-2.224;2023-04-26T06:50:40;17;17;
46681;PMS5003;34101;53.430;-2.224;2023-04-26T06:53:07;18;15;
46681;PMS5003;34101;53.430;-2.224;2023-04-26T06:55:35;15;15;
46681;PMS5003;34101;53.430;-2.224;2023-04-26T06:58:02;20;18;
46681;PMS5003;34101;53.430;-2.224;2023-04-26T07:00:30;17;15;
46681;PMS5003;34101;53.430;-2.224;2023-04-26T07:02:57;16;15;
46681;PMS5003;34101;53.430;-2.224;2023-04-26T07:05:29;15;15;
46681;PMS5003;34101;53.430;-2.224;2023-04-26T07:07:57;21;20;
46681;PMS5003;34101;53.430;-2.224;2023-04-26T07:10:24;19;18;
46681;PMS5003;34101;53.430;-2.224;2023-04-26T07:12:52;19;19;
46681;PMS5003;34101;53.430;-2.224;2023-04-26T07:15:20;16;14;
46681;PMS5003;34101;53.430;-2.224;2023-04-26T07:17:47;18;16;
46681;PMS5003;34101;53.430;-2.224;2023-04-26T07:20:14;19;18;
46681;PMS5003;34101;53.430;-2.224;2023-04-26T07:22:42;17;17;
46681;PMS5003;34101;53.430;-2.224;2023-04-26T07:25:09;15;15;
46681;PMS5003;34101;53.430;-2.224;2023-04-26T07:27:37;14;14;
46681;PMS5003;34101;53.430;-2.224;2023-04-26T07:30:05;17;16;
46681;PMS5003;34101;53.430;-2.224;2023-04-26T07:32:32;18;15;
46681;PMS5003;34101;53.430;-2.224;2023-04-26T07:35:00;17;17;
46681;PMS5003;34101;53.430;-2.224;2023-04-26T07:37:28;19;16;
46681;PMS5003;34101;53.430;-2.224;2023-04-26T07:39:55;16;13;
46681;PMS5003;34101;53.430;-2.224;2023-04-26T07:42:22;21;20;
46681;PMS5003;34101;53.430;-2.224;2023-04-26T07:44:50;16;16;
46681;PMS5003;34101;53.430;-2.224;2023-04-26T07:47:17;18;17;
46681;PMS5003;34101;53.430;-2.224;2023-04-26T07:49:44;17;16;
46681;PMS5003;34101;53.430;-2.224;2023-04-26T07:52:12;17;16;
46681;PMS5003;34101;53.430;-2.224;2023-04-26T07:54:39;15;14;
46681;PMS5003;34101;53.430;-2.224;2023-04-26T07:57:07;13;11;
46681;PMS5003;34101;53.430;-2.224;2023-04-26T07:59:34;12;12;
46681;PMS5003;34101;53.430;-2.224;2023-04-26T08:02:01;13;12;
46681;PMS5003;34101;53.430;-2.224;2023-04-26T08:04:30;16;16;
46681;PMS5003;34101;53.430;-2.224;2023-04-26T08:06:58;17;14;
46681;PMS5003;34101;53.430;-2.224;2023-04-26T08:09:26;13;13;
46681;PMS5003;34101;53.430;-2.224;2023-04-26T08:11:53;14;14;
46681;PMS5003;34101;53.430;-2.224;2023-04-26T08:14:21;17;14;
46681;PMS5003;34101;53.430;-2.224;2023-04-26T08:16:49;18;16;
46681;PMS5003;34101;53.430;-2.224;2023-04-26T08:19:16;13;13;
46681;PMS5003;34101;53.430;-2.224;2023-04-26T08:21:44;14;14;
46681;PMS5003;34101;53.430;-2.224;2023-04-26T08:24:11;16;13;
46681;PMS5003;34101;53.430;-2.224;2023-04-26T08:26:38;18;14;
46681;PMS5003;34101;53.430;-2.224;2023-04-26T08:29:06;17;14;
46681;PMS5003;34101;53.430;-2.224;2023-04-26T08:31:33;12;12;
46681;PMS5003;34101;53.430;-2.224;2023-04-26T08:34:01;17;17;
46681;PMS5003;34101;53.430;-2.224;2023-04-26T08:36:28;18;18;
46681;PMS5003;34101;53.430;-2.224;2023-04-26T08:38:55;15;14;
46681;PMS5003;34101;53.430;-2.224;2023-04-26T08:41:24;16;15;
46681;PMS5003;34101;53.430;-2.224;2023-04-26T08:43:53;17;15;
46681;PMS5003;34101;53.430;-2.224;2023-04-26T08:46:22;17;16;
46681;PMS5003;34101;53.430;-2.224;2023-04-26T08:48:53;14;14;
46681;PMS5003;34101;53.430;-2.224;2023-04-26T08:51:36;17;14;
46681;PMS5003;34101;53.430;-2.224;2023-04-26T08:54:04;14;11;
46681;PMS5003;34101;53.430;-2.224;2023-04-26T08:56:32;13;13;
46681;PMS5003;34101;53.430;-2.224;2023-04-26T08:59:00;13;10;
46681;PMS5003;34101;53.430;-2.224;2023-04-26T09:01:28;11;11;
46681;PMS5003;34101;53.430;-2.224;2023-04-26T09:03:56;11;11;
46681;PMS5003;34101;53.430;-2.224;2023-04-26T09:06:26;13;13;
46681;PMS5003;34101;53.430;-2.224;2023-04-26T09:08:54;14;13;
46681;PMS5003;34101;53.430;-2.224;2023-04-26T09:11:23;14;12;
46681;PMS5003;34101;53.430;-2.224;2023-04-26T09:13:51;12;12;
46681;PMS5003;34101;53.430;-2.224;2023-04-26T09:16:18;14;13;
46681;PMS5003;34101;53.430;-2.224;2023-04-26T09:18:46;14;14;
46681;PMS5003;34101;53.430;-2.224;2023-04-26T09:21:20;12;12;
46681;PMS5003;34101;53.430;-2.224;2023-04-26T09:23:56;13;12;
46681;PMS5003;34101;53.430;-2.224;2023-04-26T09:26:23;11;11;
46681;PMS5003;34101;53.430;-2.224;2023-04-26T09:28:59;9;9;
46681;PMS5003;34101;53.430;-2.224;2023-04-26T09:31:38;11;10;
46681;PMS5003;34101;53.430;-2.224;2023-04-26T09:34:06;13;13;
46681;PMS5003;34101;53.430;-2.224;2023-04-26T09:36:52;10;10;
46681;PMS5003;34101;53.430;-2.224;2023-04-26T09:39:37;12;11;
46681;PMS5003;34101;53.430;-2.224;2023-04-26T09:42:06;10;10;
46681;PMS5003;34101;53.430;-2.224;2023-04-26T09:44:34;11;11;
46681;PMS5003;34101;53.430;-2.224;2023-04-26T09:47:03;11;11;
46681;PMS5003;34101;53.430;-2.224;2023-04-26T09:49:32;10;10;
46681;PMS5003;34101;53.430;-2.224;2023-04-26T09:52:09;12;12;
46681;PMS5003;34101;53.430;-2.224;2023-04-26T09:54:37;9;9;
46681;PMS5003;34101;53.430;-2.224;2023-04-26T09:57:06;14;13;
46681;PMS5003;34101;53.430;-2.224;2023-04-26T09:59:49;12;12;
46681;PMS5003;34101;53.430;-2.224;2023-04-26T10:02:18;14;11;
46681;PMS5003;34101;53.430;-2.224;2023-04-26T10:04:47;14;12;
46681;PMS5003;34101;53.430;-2.224;2023-04-26T10:07:16;10;10;
46681;PMS5003;34101;53.430;-2.224;2023-04-26T10:09:44;15;15;
46681;PMS5003;34101;53.430;-2.224;2023-04-26T10:12:13;17;15;
46681;PMS5003;34101;53.430;-2.224;2023-04-26T10:14:41;11;11;
46681;PMS5003;34101;53.430;-2.224;2023-04-26T10:17:09;15;15;
46681;PMS5003;34101;53.430;-2.224;2023-04-26T10:19:38;12;11;
46681;PMS5003;34101;53.430;-2.224;2023-04-26T10:22:09;12;12;
46681;PMS5003;34101;53.430;-2.224;2023-04-26T10:24:42;15;12;
46681;PMS5003;34101;53.430;-2.224;2023-04-26T10:27:10;12;11;
46681;PMS5003;34101;53.430;-2.224;2023-04-26T10:30:11;12;10;
46681;PMS5003;34101;53.430;-2.224;2023-04-26T10:33:12;14;14;
46681;PMS5003;34101;53.430;-2.224;2023-04-26T10:35:58;11;11;
46681;PMS5003;34101;53.430;-2.224;2023-04-26T10:38:26;13;13;
46681;PMS5003;34101;53.430;-2.224;2023-04-26T10:40:53;13;13;
46681;PMS5003;34101;53.430;-2.224;2023-04-26T10:43:29;12;12;
46681;PMS5003;34101;53.430;-2.224;2023-04-26T10:45:56;11;11;
46681;PMS5003;34101;53.430;-2.224;2023-04-26T10:48:57;14;12;
46681;PMS5003;34101;53.430;-2.224;2023-04-26T10:51:25;12;12;
46681;PMS5003;34101;53.430;-2.224;2023-04-26T10:53:57;14;12;
46681;PMS5003;34101;53.430;-2.224;2023-04-26T10:56:57;10;10;
46681;PMS5003;34101;53.430;-2.224;2023-04-26T10:59:24;11;10;
46681;PMS5003;34101;53.430;-2.224;2023-04-26T11:01:51;11;11;
46681;PMS5003;34101;53.430;-2.224;2023-04-26T11:04:19;13;13;
46681;PMS5003;34101;53.430;-2.224;2023-04-26T11:06:46;10;10;
46681;PMS5003;34101;53.430;-2.224;2023-04-26T11:09:47;11;11;
46681;PMS5003;34101;53.430;-2.224;2023-04-26T11:12:15;12;11;
46681;PMS5003;34101;53.430;-2.224;2023-04-26T11:14:42;13;12;
46681;PMS5003;34101;53.430;-2.224;2023-04-26T11:17:11;12;12;
46681;PMS5003;34101;53.430;-2.224;2023-04-26T11:19:39;11;10;
46681;PMS5003;34101;53.430;-2.224;2023-04-26T11:22:07;11;11;
46681;PMS5003;34101;53.430;-2.224;2023-04-26T11:24:39;12;12;
46681;PMS5003;34101;53.430;-2.224;2023-04-26T11:27:09;10;10;
46681;PMS5003;34101;53.430;-2.224;2023-04-26T11:29:37;13;13;
46681;PMS5003;34101;53.430;-2.224;2023-04-26T11:32:05;14;11;
46681;PMS5003;34101;53.430;-2.224;2023-04-26T11:34:32;9;9;
46681;PMS5003;34101;53.430;-2.224;2023-04-26T11:37:00;13;13;
46681;PMS5003;34101;53.430;-2.224;2023-04-26T11:39:29;12;11;
46681;PMS5003;34101;53.430;-2.224;2023-04-26T11:42:03;10;9;
46681;PMS5003;34101;53.430;-2.224;2023-04-26T11:44:31;13;12;
46681;PMS5003;34101;53.430;-2.224;2023-04-26T11:46:59;13;13;
46681;PMS5003;34101;53.430;-2.224;2023-04-26T11:49:27;12;10;
46681;PMS5003;34101;53.430;-2.224;2023-04-26T11:51:55;12;10;
46681;PMS5003;34101;53.430;-2.224;2023-04-26T11:54:27;11;11;
46681;PMS5003;34101;53.430;-2.224;2023-04-26T11:56:55;13;12;
46681;PMS5003;34101;53.430;-2.224;2023-04-26T11:59:22;9;9;
46681;PMS5003;34101;53.430;-2.224;2023-04-26T12:01:50;11;11;
46681;PMS5003;34101;53.430;-2.224;2023-04-26T12:04:18;11;10;
46681;PMS5003;34101;53.430;-2.224;2023-04-26T12:06:57;12;10;
46681;PMS5003;34101;53.430;-2.224;2023-04-26T12:09:25;8;8;
46681;PMS5003;34101;53.430;-2.224;2023-04-26T12:11:56;13;12;
46681;PMS5003;34101;53.430;-2.224;2023-04-26T12:14:29;11;11;
46681;PMS5003;34101;53.430;-2.224;2023-04-26T12:16:57;7;7;
46681;PMS5003;34101;53.430;-2.224;2023-04-26T12:19:26;11;11;
46681;PMS5003;34101;53.430;-2.224;2023-04-26T12:21:53;12;12;
46681;PMS5003;34101;53.430;-2.224;2023-04-26T12:24:21;11;11;
46681;PMS5003;34101;53.430;-2.224;2023-04-26T12:26:50;13;13;
46681;PMS5003;34101;53.430;-2.224;2023-04-26T12:29:17;14;14;
46681;PMS5003;34101;53.430;-2.224;2023-04-26T12:31:45;11;10;
46681;PMS5003;34101;53.430;-2.224;2023-04-26T12:34:17;11;11;
46681;PMS5003;34101;53.430;-2.224;2023-04-26T12:36:45;12;11;
46681;PMS5003;34101;53.430;-2.224;2023-04-26T12:39:12;13;13;
46681;PMS5003;34101;53.430;-2.224;2023-04-26T12:41:40;13;13;
46681;PMS5003;34101;53.430;-2.224;2023-04-26T12:44:08;13;13;
46681;PMS5003;34101;53.430;-2.224;2023-04-26T12:46:36;13;12;
46681;PMS5003;34101;53.430;-2.224;2023-04-26T12:49:03;13;13;
46681;PMS5003;34101;53.430;-2.224;2023-04-26T12:51:30;12;12;
46681;PMS5003;34101;53.430;-2.224;2023-04-26T12:53:57;17;15;
46681;PMS5003;34101;53.430;-2.224;2023-04-26T12:56:25;12;10;
46681;PMS5003;34101;53.430;-2.224;2023-04-26T12:58:59;13;11;
46681;PMS5003;34101;53.430;-2.224;2023-04-26T13:01:26;14;12;
46681;PMS5003;34101;53.430;-2.224;2023-04-26T13:03:53;12;12;
46681;PMS5003;34101;53.430;-2.224;2023-04-26T13:06:20;15;13;
46681;PMS5003;34101;53.430;-2.224;2023-04-26T13:08:48;12;12;
46681;PMS5003;34101;53.430;-2.224;2023-04-26T13:11:15;15;13;
46681;PMS5003;34101;53.430;-2.224;2023-04-26T13:13:43;14;12;
46681;PMS5003;34101;53.430;-2.224;2023-04-26T13:16:10;15;15;
46681;PMS5003;34101;53.430;-2.224;2023-04-26T13:18:38;19;16;
46681;PMS5003;34101;53.430;-2.224;2023-04-26T13:21:06;16;16;
46681;PMS5003;34101;53.430;-2.224;2023-04-26T13:23:33;14;14;
46681;PMS5003;34101;53.430;-2.224;2023-04-26T13:26:01;15;15;
46681;PMS5003;34101;53.430;-2.224;2023-04-26T13:28:28;13;13;
46681;PMS5003;34101;53.430;-2.224;2023-04-26T13:30:55;14;14;
46681;PMS5003;34101;53.430;-2.224;2023-04-26T13:33:23;13;13;
46681;PMS5003;34101;53.430;-2.224;2023-04-26T13:35:51;12;12;
46681;PMS5003;34101;53.430;-2.224;2023-04-26T13:38:18;19;16;
46681;PMS5003;34101;53.430;-2.224;2023-04-26T13:40:45;18;17;
46681;PMS5003;34101;53.430;-2.224;2023-04-26T13:43:13;14;14;
46681;PMS5003;34101;53.430;-2.224;2023-04-26T13:45:40;13;13;
46681;PMS5003;34101;53.430;-2.224;2023-04-26T13:48:12;20;20;
46681;PMS5003;34101;53.430;-2.224;2023-04-26T13:50:45;17;17;
46681;PMS5003;34101;53.430;-2.224;2023-04-26T13:53:12;17;16;
46681;PMS5003;34101;53.430;-2.224;2023-04-26T13:55:40;15;15;
46681;PMS5003;34101;53.430;-2.224;2023-04-26T13:58:07;16;15;
46681;PMS5003;34101;53.430;-2.224;2023-04-26T14:00:34;15;15;
46681;PMS5003;34101;53.430;-2.224;2023-04-26T14:03:02;18;15;
46681;PMS5003;34101;53.430;-2.224;2023-04-26T14:05:29;18;16;
46681;PMS5003;34101;53.430;-2.224;2023-04-26T14:07:56;14;13;
46681;PMS5003;34101;53.430;-2.224;2023-04-26T14:10:24;15;15;
46681;PMS5003;34101;53.430;-2.224;2023-04-26T14:12:52;20;20;
46681;PMS5003;34101;53.430;-2.224;2023-04-26T14:15:19;21;18;
46681;PMS5003;34101;53.430;-2.224;2023-04-26T14:17:47;16;16;
46681;PMS5003;34101;53.430;-2.224;2023-04-26T14:20:14;18;17;
46681;PMS5003;34101;53.430;-2.224;2023-04-26T14:22:42;19;17;
46681;PMS5003;34101;53.430;-2.224;2023-04-26T14:25:09;20;19;
46681;PMS5003;34101;53.430;-2.224;2023-04-26T14:27:37;17;17;
46681;PMS5003;34101;53.430;-2.224;2023-04-26T14:30:05;16;16;
46681;PMS5003;34101;53.430;-2.224;2023-04-26T14:32:33;18;16;
46681;PMS5003;34101;53.430;-2.224;2023-04-26T14:35:00;19;18;
46681;PMS5003;34101;53.430;-2.224;2023-04-26T14:37:28;17;17;
46681;PMS5003;34101;53.430;-2.224;2023-04-26T14:39:55;18;18;
46681;PMS5003;34101;53.430;-2.224;2023-04-26T14:42:22;21;18;
46681;PMS5003;34101;53.430;-2.224;2023-04-26T14:44:50;15;15;
46681;PMS5003;34101;53.430;-2.224;2023-04-26T14:47:17;18;17;
46681;PMS5003;34101;53.430;-2.224;2023-04-26T14:49:45;16;15;
46681;PMS5003;34101;53.430;-2.224;2023-04-26T14:52:17;18;17;
46681;PMS5003;34101;53.430;-2.224;2023-04-26T14:54:49;16;16;
46681;PMS5003;34101;53.430;-2.224;2023-04-26T14:57:16;15;15;
46681;PMS5003;34101;53.430;-2.224;2023-04-26T14:59:44;19;19;
46681;PMS5003;34101;53.430;-2.224;2023-04-26T15:02:11;19;17;
46681;PMS5003;34101;53.430;-2.224;2023-04-26T15:04:39;19;19;
46681;PMS5003;34101;53.430;-2.224;2023-04-26T15:07:06;19;19;
46681;PMS5003;34101;53.430;-2.224;2023-04-26T15:09:33;21;20;
46681;PMS5003;34101;53.430;-2.224;2023-04-26T15:12:01;17;16;
46681;PMS5003;34101;53.430;-2.224;2023-04-26T15:14:28;16;15;
46681;PMS5003;34101;53.430;-2.224;2023-04-26T15:16:55;15;15;
46681;PMS5003;34101;53.430;-2.224;2023-04-26T15:19:23;19;19;
46681;PMS5003;34101;53.430;-2.224;2023-04-26T15:21:50;21;21;
46681;PMS5003;34101;53.430;-2.224;2023-04-26T15:24:18;15;14;
46681;PMS5003;34101;53.430;-2.224;2023-04-26T15:26:45;17;17;
46681;PMS5003;34101;53.430;-2.224;2023-04-26T15:29:12;15;14;
46681;PMS5003;34101;53.430;-2.224;2023-04-26T15:31:40;16;15;
46681;PMS5003;34101;53.430;-2.224;2023-04-26T15:34:07;17;16;
46681;PMS5003;34101;53.430;-2.224;2023-04-26T15:36:35;15;15;
46681;PMS5003;34101;53.430;-2.224;2023-04-26T15:39:07;18;16;
46681;PMS5003;34101;53.430;-2.224;2023-04-26T15:41:34;14;14;
46681;PMS5003;34101;53.430;-2.224;2023-04-26T15:44:01;18;18;
46681;PMS5003;34101;53.430;-2.224;2023-04-26T15:46:29;15;15;
46681;PMS5003;34101;53.430;-2.224;2023-04-26T15:48:56;15;14;
46681;PMS5003;34101;53.430;-2.224;2023-04-26T15:51:24;18;15;
46681;PMS5003;34101;53.430;-2.224;2023-04-26T15:53:51;17;15;
46681;PMS5003;34101;53.430;-2.224;2023-04-26T15:56:18;17;17;
46681;PMS5003;34101;53.430;-2.224;2023-04-26T15:58:46;14;12;
46681;PMS5003;34101;53.430;-2.224;2023-04-26T16:01:14;13;12;
46681;PMS5003;34101;53.430;-2.224;2023-04-26T16:03:41;15;15;
46681;PMS5003;34101;53.430;-2.224;2023-04-26T16:06:08;13;13;
46681;PMS5003;34101;53.430;-2.224;2023-04-26T16:08:36;15;15;
46681;PMS5003;34101;53.430;-2.224;2023-04-26T16:11:03;14;13;
46681;PMS5003;34101;53.430;-2.224;2023-04-26T16:13:30;16;16;